createdAt,value
2022-11-12T02:33:56.184Z,102615.16
2022-11-12T02:39:06.413Z,102296.78
2022-11-12T02:44:16.966Z,102430.78
2022-11-12T02:49:27.245Z,102455.50
2022-11-12T02:54:37.672Z,102552.91
2022-11-12T02:59:48.086Z,102443.13
2022-11-12T03:04:58.440Z,102382.31
2022-11-12T03:10:09.075Z,102143.47
2022-11-12T03:15:19.214Z,102636.38
2022-11-12T03:20:30.073Z,102592.31
2022-11-12T03:25:40.112Z,102400.88
2022-11-12T03:30:50.644Z,102435.47
2022-11-12T03:36:01.180Z,102415.13
2022-11-12T03:41:11.738Z,102532.94
2022-11-12T03:46:22.188Z,102415.13
2022-11-12T03:51:32.151Z,102537.25
2022-11-12T03:56:42.491Z,102424.03
2022-11-12T04:01:52.788Z,102558.53
2022-11-12T04:07:21.901Z,102363.09
2022-11-12T04:12:51.188Z,102369.59
2022-11-12T04:18:20.437Z,102415.13
2022-11-12T04:23:30.775Z,102274.97
2022-11-12T04:29:01.149Z,102341.44
2022-11-12T04:34:29.298Z,102552.41
2022-11-12T04:39:39.998Z,102393.25
2022-11-12T04:45:16.763Z,102441.13
2022-11-12T04:50:26.943Z,102344.22
2022-11-12T04:55:37.275Z,102233.88
2022-11-12T05:00:48.271Z,102383.50
2022-11-12T05:06:29.605Z,102529.72
2022-11-12T05:11:39.878Z,102274.16
2022-11-12T05:16:51.417Z,102298.78
2022-11-12T05:22:13.902Z,102112.03
2022-11-12T05:27:32.286Z,102436.06
2022-11-12T05:32:42.594Z,102512.00
2022-11-12T05:37:53.097Z,102364.56
2022-11-12T05:43:03.763Z,102322.50
2022-11-12T05:48:14.189Z,102332.75
2022-11-12T05:53:24.665Z,102431.47
2022-11-12T05:58:36.460Z,102518.75
2022-11-12T06:03:47.440Z,102461.16
2022-11-12T06:08:57.481Z,102208.78
2022-11-12T06:14:08.375Z,102406.28
2022-11-12T06:19:18.551Z,102241.97
2022-11-12T06:24:35.002Z,102375.31
2022-11-12T06:29:45.872Z,102288.41
2022-11-12T06:34:56.452Z,102372.84
2022-11-12T06:40:07.682Z,102207.34
2022-11-12T06:45:18.171Z,102505.00
2022-11-12T06:50:28.376Z,102153.84
2022-11-12T06:55:38.714Z,102211.25
2022-11-12T07:00:49.323Z,102139.81
2022-11-12T07:06:08.157Z,102027.59
2022-11-12T07:11:19.973Z,102209.03
2022-11-12T07:16:30.034Z,102420.59
2022-11-12T07:21:40.464Z,102080.25
2022-11-12T07:26:50.898Z,102348.63
2022-11-12T07:32:01.468Z,102306.19
2022-11-12T07:37:11.817Z,102175.84
2022-11-12T07:42:22.192Z,102416.97
2022-11-12T07:47:32.486Z,102369.19
2022-11-12T07:52:42.820Z,102482.72
2022-11-12T07:57:53.869Z,102266.31
2022-11-12T08:03:04.132Z,102388.88
2022-11-12T08:08:14.518Z,102536.66
2022-11-12T08:13:25.222Z,102581.22
2022-11-12T08:18:35.627Z,102582.38
2022-11-12T08:23:46.319Z,102477.06
2022-11-12T08:28:56.499Z,102574.66
2022-11-12T08:34:20.129Z,102273.53
2022-11-12T08:39:32.879Z,102481.94
2022-11-12T08:44:43.236Z,102490.81
2022-11-12T08:49:53.605Z,102578.13
2022-11-12T08:55:04.465Z,102486.19
2022-11-12T09:00:15.616Z,102387.38
2022-11-12T09:05:26.231Z,102214.72
2022-11-12T09:10:42.013Z,102390.63
2022-11-12T09:15:52.123Z,102516.91
2022-11-12T09:21:05.152Z,102597.34
2022-11-12T09:26:15.704Z,102455.72
2022-11-12T09:31:26.130Z,102364.63
2022-11-12T09:36:39.839Z,102254.44
2022-11-12T09:41:50.512Z,102493.84
2022-11-12T09:47:12.574Z,102476.19
2022-11-12T09:52:27.219Z,102475.44
2022-11-12T09:57:37.727Z,102208.34
2022-11-12T10:02:57.206Z,102313.78
2022-11-12T10:08:22.986Z,102566.78
2022-11-12T10:14:04.057Z,102550.03
2022-11-12T10:19:19.219Z,102409.44
2022-11-12T10:24:35.165Z,102295.00
2022-11-12T10:29:56.893Z,102291.25
2022-11-12T10:35:07.665Z,102262.59
2022-11-12T10:40:20.827Z,102554.25
2022-11-12T10:45:32.347Z,102462.81
2022-11-12T10:50:43.228Z,102426.56
2022-11-12T10:56:00.105Z,102440.06
2022-11-12T11:01:17.931Z,102456.75
2022-11-12T11:06:28.655Z,102432.47
2022-11-12T11:11:49.037Z,102288.44
2022-11-12T11:17:08.509Z,102248.13
2022-11-12T11:22:37.459Z,102513.06
2022-11-12T11:28:08.946Z,102372.34
2022-11-12T11:33:48.766Z,102482.50
2022-11-12T11:39:22.755Z,102239.31
2022-11-12T11:44:36.337Z,102490.00
2022-11-12T11:49:56.059Z,102487.09
2022-11-12T11:55:27.880Z,102288.28
2022-11-12T12:00:47.606Z,102289.31
2022-11-12T12:06:11.756Z,102246.84
2022-11-12T12:11:45.445Z,102469.38
2022-11-12T12:17:06.582Z,102467.75
2022-11-12T12:22:24.166Z,102224.47
2022-11-12T12:27:38.501Z,102328.81
2022-11-12T12:32:59.821Z,102238.03
2022-11-12T12:38:29.173Z,102460.09
2022-11-12T12:43:53.850Z,102246.63
2022-11-12T12:49:07.274Z,102171.44
2022-11-12T12:54:52.944Z,102441.41
2022-11-12T13:00:29.926Z,102447.38
2022-11-12T13:05:42.895Z,102019.06
2022-11-12T13:10:53.805Z,102290.56
2022-11-12T13:16:04.659Z,102305.63
2022-11-12T13:21:17.567Z,102275.06
2022-11-12T13:26:44.048Z,102303.56
2022-11-12T13:32:35.925Z,102414.53
2022-11-12T13:37:57.488Z,102411.59
2022-11-12T13:43:17.420Z,102414.09
2022-11-12T13:48:34.168Z,102410.13
2022-11-12T13:53:44.491Z,102244.63
2022-11-12T13:58:55.542Z,102128.25
2022-11-12T14:04:07.275Z,102379.84
2022-11-12T14:09:23.828Z,102399.69
2022-11-12T14:14:47.444Z,102227.19
2022-11-12T14:20:08.324Z,102409.78
2022-11-12T14:25:21.957Z,102026.28
2022-11-12T14:30:32.201Z,102196.97
2022-11-12T14:35:42.404Z,102085.19
2022-11-12T14:40:55.691Z,102271.59
2022-11-12T14:46:08.424Z,102374.75
2022-11-12T14:51:19.499Z,102348.19
2022-11-12T14:56:47.486Z,102131.94
2022-11-12T15:02:31.397Z,102365.47
2022-11-12T15:07:53.787Z,102365.63
2022-11-12T15:13:11.796Z,102325.97
2022-11-12T15:18:26.376Z,102291.00
2022-11-12T15:23:36.800Z,102146.88
2022-11-12T15:29:27.213Z,102273.06
2022-11-12T15:34:40.052Z,102202.81
2022-11-12T15:40:03.622Z,102340.97
2022-11-12T15:45:21.745Z,102015.06
2022-11-12T15:50:32.131Z,102334.88
2022-11-12T15:55:44.053Z,102062.56
2022-11-12T16:00:54.426Z,102210.53
2022-11-12T16:06:09.040Z,102047.03
2022-11-12T16:11:38.297Z,102156.09
2022-11-12T16:16:48.559Z,102209.44
2022-11-12T16:21:58.884Z,102284.91
2022-11-12T16:27:16.006Z,102219.38
2022-11-12T16:32:26.104Z,102215.94
2022-11-12T16:37:38.478Z,102034.09
2022-11-12T16:42:48.860Z,102130.06
2022-11-12T16:47:59.390Z,102108.38
2022-11-12T16:53:12.699Z,102202.97
2022-11-12T16:58:23.210Z,102031.22
2022-11-12T17:03:33.391Z,102306.94
2022-11-12T17:08:46.335Z,102277.66
2022-11-12T17:13:56.619Z,102238.75
2022-11-12T17:19:07.623Z,102028.66
2022-11-12T17:24:18.425Z,102173.50
2022-11-12T17:29:28.745Z,102300.22
2022-11-12T17:34:39.095Z,102233.78
2022-11-12T17:39:49.460Z,102125.19
2022-11-12T17:44:59.756Z,102256.59
2022-11-12T17:50:10.132Z,102253.44
2022-11-12T17:55:20.633Z,102293.78
2022-11-12T18:00:31.080Z,102283.78
2022-11-12T18:05:41.597Z,102228.91
2022-11-12T18:10:52.943Z,102072.22
2022-11-12T18:16:14.859Z,102292.16
2022-11-12T18:21:26.811Z,102088.22
2022-11-12T18:26:37.384Z,102035.75
2022-11-12T18:31:48.199Z,102206.91
2022-11-12T18:36:58.305Z,102080.78
2022-11-12T18:42:08.643Z,102225.81
2022-11-12T18:47:18.936Z,102224.47
2022-11-12T18:52:29.321Z,101962.88
2022-11-12T18:57:39.817Z,101993.75
2022-11-12T19:02:50.402Z,102142.25
2022-11-12T19:08:00.913Z,102216.72
2022-11-12T19:13:13.502Z,102165.50
2022-11-12T19:18:24.116Z,102236.09
2022-11-12T19:23:34.906Z,102257.22
2022-11-12T19:28:45.883Z,102134.47
2022-11-12T19:33:56.372Z,102162.34
2022-11-12T19:39:06.694Z,102222.88
2022-11-12T19:44:16.977Z,102038.97
2022-11-12T19:49:27.185Z,101962.41
2022-11-12T19:54:40.055Z,102232.56
2022-11-12T19:59:50.359Z,102160.72
2022-11-12T20:05:00.743Z,102193.13
2022-11-12T20:10:12.845Z,102038.66
2022-11-12T20:15:23.175Z,102135.53
2022-11-12T20:20:33.644Z,102232.59
2022-11-12T20:25:44.253Z,101996.69
2022-11-12T20:31:03.303Z,101863.72
2022-11-12T20:36:16.035Z,102142.19
2022-11-12T20:41:26.898Z,102076.19
2022-11-12T20:46:37.103Z,102241.63
2022-11-12T20:51:47.414Z,102220.31
2022-11-12T20:56:59.712Z,102229.66
2022-11-12T21:02:10.316Z,102124.50
2022-11-12T21:07:20.999Z,101943.06
2022-11-12T21:12:31.712Z,102090.78
2022-11-12T21:17:42.159Z,101840.91
2022-11-12T21:22:52.620Z,102142.84
2022-11-12T21:28:03.434Z,102219.09
2022-11-12T21:33:13.788Z,102123.84
2022-11-12T21:38:24.532Z,102014.16
2022-11-12T21:43:39.750Z,101887.25
2022-11-12T21:48:54.720Z,102070.47
2022-11-12T21:54:07.333Z,102123.78
2022-11-12T21:59:17.701Z,101798.88
2022-11-12T22:04:28.145Z,101998.25
2022-11-12T22:09:38.564Z,101939.41
2022-11-12T22:14:48.822Z,102027.19
2022-11-12T22:19:59.446Z,101980.97
2022-11-12T22:25:09.927Z,102184.28
2022-11-12T22:30:20.423Z,102043.16
2022-11-12T22:35:30.832Z,102027.91
2022-11-12T22:40:41.186Z,101983.22
2022-11-12T22:45:51.408Z,102168.19
2022-11-12T22:51:03.596Z,102175.09
2022-11-12T22:56:16.956Z,102173.16
2022-11-12T23:01:29.990Z,102178.69
2022-11-12T23:06:40.625Z,102174.09
2022-11-12T23:11:50.887Z,102162.97
2022-11-12T23:17:02.348Z,102073.97
2022-11-12T23:22:12.732Z,102075.47
2022-11-12T23:27:23.430Z,101995.50
2022-11-12T23:32:34.022Z,101864.84
2022-11-12T23:37:44.640Z,102041.16
2022-11-12T23:42:55.111Z,102000.34
2022-11-12T23:48:05.793Z,101741.00
2022-11-12T23:53:16.761Z,102092.78
2022-11-12T23:58:28.039Z,101958.72
